sensor_id;sensor_type;location;lat;lon;timestamp;temperature;humidity
66670;DHT22;53568;52.164;4.472;2023-08-07T00:02:09;16.08;69.02
66670;DHT22;53568;52.164;4.472;2023-08-07T00:04:35;16.02;69.02
66670;DHT22;53568;52.164;4.472;2023-08-07T00:07:00;16.08;69.30
66670;DHT22;53568;52.164;4.472;2023-08-07T00:09:26;16.05;70.14
66670;DHT22;53568;52.164;4.472;2023-08-07T00:11:51;16.09;71.42
66670;DHT22;53568;52.164;4.472;2023-08-07T00:14:17;15.98;71.85
66670;DHT22;53568;52.164;4.472;2023-08-07T00:16:42;15.98;70.84
66670;DHT22;53568;52.164;4.472;2023-08-07T00:19:08;16.09;70.95
66670;DHT22;53568;52.164;4.472;2023-08-07T00:21:33;16.19;70.50
66670;DHT22;53568;52.164;4.472;2023-08-07T00:24:01;16.11;71.78
66670;DHT22;53568;52.164;4.472;2023-08-07T00:26:26;15.94;73.01
66670;DHT22;53568;52.164;4.472;2023-08-07T00:28:52;15.67;74.08
66670;DHT22;53568;52.164;4.472;2023-08-07T00:31:18;15.44;73.88
66670;DHT22;53568;52.164;4.472;2023-08-07T00:33:43;15.51;72.26
66670;DHT22;53568;52.164;4.472;2023-08-07T00:36:08;15.58;70.58
66670;DHT22;53568;52.164;4.472;2023-08-07T00:38:34;15.67;72.29
66670;DHT22;53568;52.164;4.472;2023-08-07T00:40:59;15.53;74.08
66670;DHT22;53568;52.164;4.472;2023-08-07T00:43:25;15.50;74.41
66670;DHT22;53568;52.164;4.472;2023-08-07T00:45:50;15.47;74.33
66670;DHT22;53568;52.164;4.472;2023-08-07T00:48:16;15.61;74.20
66670;DHT22;53568;52.164;4.472;2023-08-07T00:50:44;15.77;74.74
66670;DHT22;53568;52.164;4.472;2023-08-07T00:53:11;15.74;75.15
66670;DHT22;53568;52.164;4.472;2023-08-07T00:55:37;15.65;75.82
66670;DHT22;53568;52.164;4.472;2023-08-07T00:58:03;15.71;75.46
66670;DHT22;53568;52.164;4.472;2023-08-07T01:00:29;15.70;72.78
66670;DHT22;53568;52.164;4.472;2023-08-07T01:02:56;15.77;70.66
66670;DHT22;53568;52.164;4.472;2023-08-07T01:05:24;15.91;69.10
66670;DHT22;53568;52.164;4.472;2023-08-07T01:07:50;16.06;69.91
66670;DHT22;53568;52.164;4.472;2023-08-07T01:10:25;16.18;69.97
66670;DHT22;53568;52.164;4.472;2023-08-07T01:13:05;16.16;70.83
66670;DHT22;53568;52.164;4.472;2023-08-07T01:15:37;16.06;71.58
66670;DHT22;53568;52.164;4.472;2023-08-07T01:18:07;16.02;71.70
66670;DHT22;53568;52.164;4.472;2023-08-07T01:20:32;15.94;71.90
66670;DHT22;53568;52.164;4.472;2023-08-07T01:22:58;15.92;72.60
66670;DHT22;53568;52.164;4.472;2023-08-07T01:25:24;15.87;73.77
66670;DHT22;53568;52.164;4.472;2023-08-07T01:30:42;15.64;74.03
66670;DHT22;53568;52.164;4.472;2023-08-07T01:33:21;15.67;73.99
66670;DHT22;53568;52.164;4.472;2023-08-07T01:35:53;15.55;73.59
66670;DHT22;53568;52.164;4.472;2023-08-07T01:38:21;15.64;72.33
66670;DHT22;53568;52.164;4.472;2023-08-07T01:40:50;15.68;70.95
66670;DHT22;53568;52.164;4.472;2023-08-07T01:43:16;15.75;69.11
66670;DHT22;53568;52.164;4.472;2023-08-07T01:45:42;15.97;69.07
66670;DHT22;53568;52.164;4.472;2023-08-07T01:48:07;15.94;69.82
66670;DHT22;53568;52.164;4.472;2023-08-07T01:50:34;16.08;70.12
66670;DHT22;53568;52.164;4.472;2023-08-07T01:53:01;16.12;70.89
66670;DHT22;53568;52.164;4.472;2023-08-07T01:55:27;16.08;71.00
66670;DHT22;53568;52.164;4.472;2023-08-07T01:57:53;16.02;70.73
66670;DHT22;53568;52.164;4.472;2023-08-07T02:00:19;16.02;69.74
66670;DHT22;53568;52.164;4.472;2023-08-07T02:02:44;16.05;70.24
66670;DHT22;53568;52.164;4.472;2023-08-07T02:05:12;16.15;70.39
66670;DHT22;53568;52.164;4.472;2023-08-07T02:07:38;16.14;70.42
66670;DHT22;53568;52.164;4.472;2023-08-07T02:10:03;16.11;70.79
66670;DHT22;53568;52.164;4.472;2023-08-07T02:12:29;16.06;71.40
66670;DHT22;53568;52.164;4.472;2023-08-07T02:14:58;16.06;71.77
66670;DHT22;53568;52.164;4.472;2023-08-07T02:17:24;16.01;72.19
66670;DHT22;53568;52.164;4.472;2023-08-07T02:19:50;15.98;73.01
66670;DHT22;53568;52.164;4.472;2023-08-07T02:22:16;16.00;73.37
66670;DHT22;53568;52.164;4.472;2023-08-07T02:24:41;16.00;73.92
66670;DHT22;53568;52.164;4.472;2023-08-07T02:27:07;15.84;74.43
66670;DHT22;53568;52.164;4.472;2023-08-07T02:29:32;15.74;75.19
66670;DHT22;53568;52.164;4.472;2023-08-07T02:32:01;15.68;77.14
66670;DHT22;53568;52.164;4.472;2023-08-07T02:34:28;15.53;78.79
66670;DHT22;53568;52.164;4.472;2023-08-07T02:36:54;15.34;78.99
66670;DHT22;53568;52.164;4.472;2023-08-07T02:39:20;15.34;79.07
66670;DHT22;53568;52.164;4.472;2023-08-07T02:41:45;15.36;79.15
66670;DHT22;53568;52.164;4.472;2023-08-07T02:44:11;15.44;79.39
66670;DHT22;53568;52.164;4.472;2023-08-07T02:46:38;15.38;79.88
66670;DHT22;53568;52.164;4.472;2023-08-07T02:49:03;15.41;79.23
66670;DHT22;53568;52.164;4.472;2023-08-07T02:51:30;15.38;76.21
66670;DHT22;53568;52.164;4.472;2023-08-07T02:53:56;15.44;75.32
66670;DHT22;53568;52.164;4.472;2023-08-07T02:56:21;15.58;75.06
66670;DHT22;53568;52.164;4.472;2023-08-07T02:58:47;15.67;74.85
66670;DHT22;53568;52.164;4.472;2023-08-07T03:01:13;15.70;74.59
66670;DHT22;53568;52.164;4.472;2023-08-07T03:03:38;15.68;73.94
66670;DHT22;53568;52.164;4.472;2023-08-07T03:06:04;15.70;74.12
66670;DHT22;53568;52.164;4.472;2023-08-07T03:08:29;15.74;74.68
66670;DHT22;53568;52.164;4.472;2023-08-07T03:10:56;15.75;75.23
66670;DHT22;53568;52.164;4.472;2023-08-07T03:13:23;15.81;75.56
66670;DHT22;53568;52.164;4.472;2023-08-07T03:15:49;15.90;75.64
66670;DHT22;53568;52.164;4.472;2023-08-07T03:18:18;15.84;76.20
66670;DHT22;53568;52.164;4.472;2023-08-07T03:20:44;15.84;77.07
66670;DHT22;53568;52.164;4.472;2023-08-07T03:23:10;15.82;77.66
66670;DHT22;53568;52.164;4.472;2023-08-07T03:25:36;15.80;78.11
66670;DHT22;53568;52.164;4.472;2023-08-07T03:28:01;15.82;76.62
66670;DHT22;53568;52.164;4.472;2023-08-07T03:30:27;15.77;75.35
66670;DHT22;53568;52.164;4.472;2023-08-07T03:32:52;15.92;75.65
66670;DHT22;53568;52.164;4.472;2023-08-07T03:35:18;16.02;75.91
66670;DHT22;53568;52.164;4.472;2023-08-07T03:37:43;16.02;76.37
66670;DHT22;53568;52.164;4.472;2023-08-07T03:40:09;15.95;76.68
66670;DHT22;53568;52.164;4.472;2023-08-07T03:42:35;15.98;76.34
66670;DHT22;53568;52.164;4.472;2023-08-07T03:45:00;16.02;75.98
66670;DHT22;53568;52.164;4.472;2023-08-07T03:47:26;16.00;76.06
66670;DHT22;53568;52.164;4.472;2023-08-07T03:49:51;16.01;74.93
66670;DHT22;53568;52.164;4.472;2023-08-07T03:52:17;16.02;73.71
66670;DHT22;53568;52.164;4.472;2023-08-07T03:54:43;16.04;72.48
66670;DHT22;53568;52.164;4.472;2023-08-07T03:57:09;16.00;71.46
66670;DHT22;53568;52.164;4.472;2023-08-07T03:59:36;16.06;71.40
66670;DHT22;53568;52.164;4.472;2023-08-07T04:02:01;16.09;71.96
66670;DHT22;53568;52.164;4.472;2023-08-07T04:04:27;16.16;72.26
66670;DHT22;53568;52.164;4.472;2023-08-07T04:06:52;16.09;72.47
66670;DHT22;53568;52.164;4.472;2023-08-07T04:09:18;16.08;72.10
66670;DHT22;53568;52.164;4.472;2023-08-07T04:11:43;16.06;72.15
66670;DHT22;53568;52.164;4.472;2023-08-07T04:14:09;16.01;72.28
66670;DHT22;53568;52.164;4.472;2023-08-07T04:16:34;16.00;72.73
66670;DHT22;53568;52.164;4.472;2023-08-07T04:19:00;16.02;73.09
66670;DHT22;53568;52.164;4.472;2023-08-07T04:21:25;16.05;73.24
66670;DHT22;53568;52.164;4.472;2023-08-07T04:23:51;15.94;72.87
66670;DHT22;53568;52.164;4.472;2023-08-07T04:26:16;15.80;72.71
66670;DHT22;53568;52.164;4.472;2023-08-07T04:28:42;15.77;73.35
66670;DHT22;53568;52.164;4.472;2023-08-07T04:31:07;15.98;72.32
66670;DHT22;53568;52.164;4.472;2023-08-07T04:33:33;15.92;72.04
66670;DHT22;53568;52.164;4.472;2023-08-07T04:35:58;15.92;72.13
66670;DHT22;53568;52.164;4.472;2023-08-07T04:38:24;15.92;72.25
66670;DHT22;53568;52.164;4.472;2023-08-07T04:40:51;16.04;72.00
66670;DHT22;53568;52.164;4.472;2023-08-07T04:43:18;16.05;71.07
66670;DHT22;53568;52.164;4.472;2023-08-07T04:45:47;15.98;71.24
66670;DHT22;53568;52.164;4.472;2023-08-07T04:48:12;16.04;70.69
66670;DHT22;53568;52.164;4.472;2023-08-07T04:50:38;16.01;71.03
66670;DHT22;53568;52.164;4.472;2023-08-07T04:53:04;16.04;71.31
66670;DHT22;53568;52.164;4.472;2023-08-07T04:55:31;15.77;76.45
66670;DHT22;53568;52.164;4.472;2023-08-07T04:57:57;15.23;79.61
66670;DHT22;53568;52.164;4.472;2023-08-07T05:00:23;14.96;81.87
66670;DHT22;53568;52.164;4.472;2023-08-07T05:02:49;14.95;82.20
66670;DHT22;53568;52.164;4.472;2023-08-07T05:05:15;14.90;82.62
66670;DHT22;53568;52.164;4.472;2023-08-07T05:07:41;15.02;82.46
66670;DHT22;53568;52.164;4.472;2023-08-07T05:10:09;15.06;82.31
66670;DHT22;53568;52.164;4.472;2023-08-07T05:12:34;15.13;82.28
66670;DHT22;53568;52.164;4.472;2023-08-07T05:15:00;15.22;81.38
66670;DHT22;53568;52.164;4.472;2023-08-07T05:17:25;15.31;81.12
66670;DHT22;53568;52.164;4.472;2023-08-07T05:19:51;15.34;80.95
66670;DHT22;53568;52.164;4.472;2023-08-07T05:22:16;15.31;80.29
66670;DHT22;53568;52.164;4.472;2023-08-07T05:24:42;15.27;80.06
66670;DHT22;53568;52.164;4.472;2023-08-07T05:27:09;15.37;80.20
66670;DHT22;53568;52.164;4.472;2023-08-07T05:29:35;15.28;80.48
66670;DHT22;53568;52.164;4.472;2023-08-07T05:32:12;15.33;80.34
66670;DHT22;53568;52.164;4.472;2023-08-07T05:34:38;15.43;80.10
66670;DHT22;53568;52.164;4.472;2023-08-07T05:37:03;15.47;78.88
66670;DHT22;53568;52.164;4.472;2023-08-07T05:39:29;15.46;77.20
66670;DHT22;53568;52.164;4.472;2023-08-07T05:41:55;15.57;76.74
66670;DHT22;53568;52.164;4.472;2023-08-07T05:44:25;15.64;76.86
66670;DHT22;53568;52.164;4.472;2023-08-07T05:46:51;15.81;76.53
66670;DHT22;53568;52.164;4.472;2023-08-07T05:49:16;15.82;76.26
66670;DHT22;53568;52.164;4.472;2023-08-07T05:51:42;15.82;75.70
66670;DHT22;53568;52.164;4.472;2023-08-07T05:54:07;15.90;75.45
66670;DHT22;53568;52.164;4.472;2023-08-07T05:56:33;15.98;76.27
66670;DHT22;53568;52.164;4.472;2023-08-07T05:58:59;15.81;75.63
66670;DHT22;53568;52.164;4.472;2023-08-07T06:01:24;15.84;74.87
66670;DHT22;53568;52.164;4.472;2023-08-07T06:03:58;15.88;74.03
66670;DHT22;53568;52.164;4.472;2023-08-07T06:06:25;15.81;73.09
66670;DHT22;53568;52.164;4.472;2023-08-07T06:08:56;15.84;72.78
66670;DHT22;53568;52.164;4.472;2023-08-07T06:11:21;15.88;73.10
66670;DHT22;53568;52.164;4.472;2023-08-07T06:13:48;15.90;72.59
66670;DHT22;53568;52.164;4.472;2023-08-07T06:16:13;15.94;72.21
66670;DHT22;53568;52.164;4.472;2023-08-07T06:18:39;15.97;72.12
66670;DHT22;53568;52.164;4.472;2023-08-07T06:21:05;16.02;72.11
66670;DHT22;53568;52.164;4.472;2023-08-07T06:23:35;15.97;71.91
66670;DHT22;53568;52.164;4.472;2023-08-07T06:26:01;16.05;72.00
66670;DHT22;53568;52.164;4.472;2023-08-07T06:28:30;16.11;71.79
66670;DHT22;53568;52.164;4.472;2023-08-07T06:31:04;16.19;70.08
66670;DHT22;53568;52.164;4.472;2023-08-07T06:33:30;16.24;69.91
66670;DHT22;53568;52.164;4.472;2023-08-07T06:35:57;16.38;69.34
66670;DHT22;53568;52.164;4.472;2023-08-07T06:38:22;16.28;69.22
66670;DHT22;53568;52.164;4.472;2023-08-07T06:40:48;16.45;69.09
66670;DHT22;53568;52.164;4.472;2023-08-07T06:43:13;16.52;69.72
66670;DHT22;53568;52.164;4.472;2023-08-07T06:45:39;16.53;69.20
66670;DHT22;53568;52.164;4.472;2023-08-07T06:48:04;16.55;68.62
66670;DHT22;53568;52.164;4.472;2023-08-07T06:50:30;16.48;66.98
66670;DHT22;53568;52.164;4.472;2023-08-07T06:52:56;16.38;66.48
66670;DHT22;53568;52.164;4.472;2023-08-07T06:55:22;16.46;67.10
66670;DHT22;53568;52.164;4.472;2023-08-07T06:57:47;16.52;65.64
66670;DHT22;53568;52.164;4.472;2023-08-07T07:00:13;16.44;66.08
66670;DHT22;53568;52.164;4.472;2023-08-07T07:02:38;16.45;65.47
66670;DHT22;53568;52.164;4.472;2023-08-07T07:05:04;16.59;66.51
66670;DHT22;53568;52.164;4.472;2023-08-07T07:07:30;16.62;66.31
66670;DHT22;53568;52.164;4.472;2023-08-07T07:09:56;16.69;65.33
66670;DHT22;53568;52.164;4.472;2023-08-07T07:12:23;16.75;64.49
66670;DHT22;53568;52.164;4.472;2023-08-07T07:14:49;16.69;64.33
66670;DHT22;53568;52.164;4.472;2023-08-07T07:17:14;16.83;64.45
66670;DHT22;53568;52.164;4.472;2023-08-07T07:19:40;16.84;64.33
66670;DHT22;53568;52.164;4.472;2023-08-07T07:22:05;16.83;64.12
66670;DHT22;53568;52.164;4.472;2023-08-07T07:24:31;16.75;64.63
66670;DHT22;53568;52.164;4.472;2023-08-07T07:26:56;16.70;64.55
66670;DHT22;53568;52.164;4.472;2023-08-07T07:29:22;16.79;65.07
66670;DHT22;53568;52.164;4.472;2023-08-07T07:31:47;16.96;65.81
66670;DHT22;53568;52.164;4.472;2023-08-07T07:34:13;17.19;65.55
66670;DHT22;53568;52.164;4.472;2023-08-07T07:36:38;17.19;64.70
66670;DHT22;53568;52.164;4.472;2023-08-07T07:39:04;17.10;64.19
66670;DHT22;53568;52.164;4.472;2023-08-07T07:41:29;17.13;64.54
66670;DHT22;53568;52.164;4.472;2023-08-07T07:43:55;17.12;65.15
66670;DHT22;53568;52.164;4.472;2023-08-07T07:46:22;17.12;63.12
66670;DHT22;53568;52.164;4.472;2023-08-07T07:48:49;17.20;62.32
66670;DHT22;53568;52.164;4.472;2023-08-07T07:51:14;17.20;62.71
66670;DHT22;53568;52.164;4.472;2023-08-07T07:53:40;17.27;62.92
66670;DHT22;53568;52.164;4.472;2023-08-07T07:56:05;17.16;62.63
66670;DHT22;53568;52.164;4.472;2023-08-07T07:58:31;17.03;63.41
66670;DHT22;53568;52.164;4.472;2023-08-07T08:00:56;17.04;61.89
66670;DHT22;53568;52.164;4.472;2023-08-07T08:03:22;16.92;61.34
66670;DHT22;53568;52.164;4.472;2023-08-07T08:05:50;17.04;61.68
66670;DHT22;53568;52.164;4.472;2023-08-07T08:08:16;17.13;61.54
66670;DHT22;53568;52.164;4.472;2023-08-07T08:10:43;17.30;62.50
66670;DHT22;53568;52.164;4.472;2023-08-07T08:13:09;17.38;61.26
66670;DHT22;53568;52.164;4.472;2023-08-07T08:15:35;17.40;59.82
66670;DHT22;53568;52.164;4.472;2023-08-07T08:18:01;17.13;60.50
66670;DHT22;53568;52.164;4.472;2023-08-07T08:20:26;17.28;60.81
66670;DHT22;53568;52.164;4.472;2023-08-07T08:22:52;17.48;61.13
66670;DHT22;53568;52.164;4.472;2023-08-07T08:25:17;17.64;60.07
66670;DHT22;53568;52.164;4.472;2023-08-07T08:27:43;17.61;61.07
66670;DHT22;53568;52.164;4.472;2023-08-07T08:30:09;17.63;62.11
66670;DHT22;53568;52.164;4.472;2023-08-07T08:32:35;17.70;62.44
66670;DHT22;53568;52.164;4.472;2023-08-07T08:35:00;17.80;61.69
66670;DHT22;53568;52.164;4.472;2023-08-07T08:37:26;17.80;62.00
66670;DHT22;53568;52.164;4.472;2023-08-07T08:39:52;17.88;61.11
66670;DHT22;53568;52.164;4.472;2023-08-07T08:42:17;17.74;60.36
66670;DHT22;53568;52.164;4.472;2023-08-07T08:45:03;17.67;59.32
66670;DHT22;53568;52.164;4.472;2023-08-07T08:47:31;17.70;60.06
66670;DHT22;53568;52.164;4.472;2023-08-07T08:50:04;17.47;59.67
66670;DHT22;53568;52.164;4.472;2023-08-07T08:52:32;17.51;61.09
66670;DHT22;53568;52.164;4.472;2023-08-07T08:54:58;17.53;61.56
66670;DHT22;53568;52.164;4.472;2023-08-07T08:57:25;17.71;61.42
66670;DHT22;53568;52.164;4.472;2023-08-07T08:59:52;17.82;61.22
66670;DHT22;53568;52.164;4.472;2023-08-07T09:02:17;17.92;61.84
66670;DHT22;53568;52.164;4.472;2023-08-07T09:04:44;18.08;61.15
66670;DHT22;53568;52.164;4.472;2023-08-07T09:07:13;18.01;61.42
66670;DHT22;53568;52.164;4.472;2023-08-07T09:09:40;17.91;60.70
66670;DHT22;53568;52.164;4.472;2023-08-07T09:12:20;17.82;60.82
66670;DHT22;53568;52.164;4.472;2023-08-07T09:14:55;17.87;61.16
66670;DHT22;53568;52.164;4.472;2023-08-07T09:17:29;17.94;61.35
66670;DHT22;53568;52.164;4.472;2023-08-07T09:19:56;17.95;59.70
66670;DHT22;53568;52.164;4.472;2023-08-07T09:22:22;17.90;60.68
66670;DHT22;53568;52.164;4.472;2023-08-07T09:24:47;17.85;60.81
66670;DHT22;53568;52.164;4.472;2023-08-07T09:27:13;17.88;60.87
66670;DHT22;53568;52.164;4.472;2023-08-07T09:29:39;17.97;61.35
66670;DHT22;53568;52.164;4.472;2023-08-07T09:32:23;17.95;59.70
66670;DHT22;53568;52.164;4.472;2023-08-07T09:34:50;17.81;59.59
66670;DHT22;53568;52.164;4.472;2023-08-07T09:37:17;17.75;59.31
66670;DHT22;53568;52.164;4.472;2023-08-07T09:39:42;17.85;59.60
66670;DHT22;53568;52.164;4.472;2023-08-07T09:42:15;17.88;59.32
66670;DHT22;53568;52.164;4.472;2023-08-07T09:44:42;17.61;59.48
66670;DHT22;53568;52.164;4.472;2023-08-07T09:47:15;17.77;60.31
66670;DHT22;53568;52.164;4.472;2023-08-07T09:49:41;18.04;60.11
66670;DHT22;53568;52.164;4.472;2023-08-07T09:52:08;18.12;58.45
66670;DHT22;53568;52.164;4.472;2023-08-07T09:54:34;18.13;57.91
66670;DHT22;53568;52.164;4.472;2023-08-07T09:57:04;18.32;58.15
66670;DHT22;53568;52.164;4.472;2023-08-07T09:59:32;18.46;57.56
66670;DHT22;53568;52.164;4.472;2023-08-07T10:02:00;18.55;56.71
66670;DHT22;53568;52.164;4.472;2023-08-07T10:04:27;18.63;57.77
66670;DHT22;53568;52.164;4.472;2023-08-07T10:06:52;18.67;58.15
66670;DHT22;53568;52.164;4.472;2023-08-07T10:09:18;18.63;58.02
66670;DHT22;53568;52.164;4.472;2023-08-07T10:11:45;18.63;56.80
66670;DHT22;53568;52.164;4.472;2023-08-07T10:14:13;18.51;55.97
66670;DHT22;53568;52.164;4.472;2023-08-07T10:16:40;18.51;56.38
66670;DHT22;53568;52.164;4.472;2023-08-07T10:19:09;18.48;57.20
66670;DHT22;53568;52.164;4.472;2023-08-07T10:21:39;18.45;56.30
66670;DHT22;53568;52.164;4.472;2023-08-07T10:24:09;18.42;54.75
66670;DHT22;53568;52.164;4.472;2023-08-07T10:26:41;18.22;56.13
66670;DHT22;53568;52.164;4.472;2023-08-07T10:29:12;18.04;58.24
66670;DHT22;53568;52.164;4.472;2023-08-07T10:31:42;18.18;59.29
66670;DHT22;53568;52.164;4.472;2023-08-07T10:34:08;18.29;58.57
66670;DHT22;53568;52.164;4.472;2023-08-07T10:36:35;18.43;58.73
66670;DHT22;53568;52.164;4.472;2023-08-07T10:39:09;18.35;57.15
66670;DHT22;53568;52.164;4.472;2023-08-07T10:41:44;18.31;57.51
66670;DHT22;53568;52.164;4.472;2023-08-07T10:46:54;18.31;59.69
66670;DHT22;53568;52.164;4.472;2023-08-07T10:49:36;18.45;59.24
66670;DHT22;53568;52.164;4.472;2023-08-07T10:52:15;18.51;58.23
66670;DHT22;53568;52.164;4.472;2023-08-07T10:54:46;18.46;59.02
66670;DHT22;53568;52.164;4.472;2023-08-07T10:57:16;18.62;59.76
66670;DHT22;53568;52.164;4.472;2023-08-07T11:00:02;18.82;57.69
66670;DHT22;53568;52.164;4.472;2023-08-07T11:02:37;18.79;58.07
66670;DHT22;53568;52.164;4.472;2023-08-07T11:05:05;18.85;58.83
66670;DHT22;53568;52.164;4.472;2023-08-07T11:07:31;18.87;59.08
66670;DHT22;53568;52.164;4.472;2023-08-07T11:09:58;19.09;57.24
66670;DHT22;53568;52.164;4.472;2023-08-07T11:12:28;19.07;55.65
66670;DHT22;53568;52.164;4.472;2023-08-07T11:14:54;19.06;55.72
66670;DHT22;53568;52.164;4.472;2023-08-07T11:17:27;18.92;55.61
66670;DHT22;53568;52.164;4.472;2023-08-07T11:19:55;18.72;55.71
66670;DHT22;53568;52.164;4.472;2023-08-07T11:22:24;18.56;55.10
66670;DHT22;53568;52.164;4.472;2023-08-07T11:24:53;18.28;57.12
66670;DHT22;53568;52.164;4.472;2023-08-07T11:27:21;18.39;56.87
66670;DHT22;53568;52.164;4.472;2023-08-07T11:29:48;18.62;55.23
66670;DHT22;53568;52.164;4.472;2023-08-07T11:32:14;18.76;52.96
66670;DHT22;53568;52.164;4.472;2023-08-07T11:34:40;18.60;54.89
66670;DHT22;53568;52.164;4.472;2023-08-07T11:37:06;18.39;56.79
66670;DHT22;53568;52.164;4.472;2023-08-07T11:39:31;18.66;55.92
66670;DHT22;53568;52.164;4.472;2023-08-07T11:41:57;18.82;55.21
66670;DHT22;53568;52.164;4.472;2023-08-07T11:44:23;18.93;54.72
66670;DHT22;53568;52.164;4.472;2023-08-07T11:46:50;19.00;53.96
66670;DHT22;53568;52.164;4.472;2023-08-07T11:49:16;19.09;51.72
66670;DHT22;53568;52.164;4.472;2023-08-07T11:51:42;19.16;50.12
66670;DHT22;53568;52.164;4.472;2023-08-07T11:54:14;19.16;49.54
66670;DHT22;53568;52.164;4.472;2023-08-07T11:56:41;19.11;50.00
66670;DHT22;53568;52.164;4.472;2023-08-07T11:59:08;19.04;49.68
66670;DHT22;53568;52.164;4.472;2023-08-07T12:01:38;19.03;50.72
66670;DHT22;53568;52.164;4.472;2023-08-07T12:06:33;18.79;55.52
66670;DHT22;53568;52.164;4.472;2023-08-07T12:09:02;18.89;57.07
66670;DHT22;53568;52.164;4.472;2023-08-07T12:11:29;19.10;56.12
66670;DHT22;53568;52.164;4.472;2023-08-07T12:13:55;18.76;57.91
66670;DHT22;53568;52.164;4.472;2023-08-07T12:16:21;18.82;56.83
66670;DHT22;53568;52.164;4.472;2023-08-07T12:18:49;18.95;56.86
66670;DHT22;53568;52.164;4.472;2023-08-07T12:21:23;18.85;56.94
66670;DHT22;53568;52.164;4.472;2023-08-07T12:23:50;18.96;57.74
66670;DHT22;53568;52.164;4.472;2023-08-07T12:26:17;19.13;57.36
66670;DHT22;53568;52.164;4.472;2023-08-07T12:28:43;19.37;57.71
66670;DHT22;53568;52.164;4.472;2023-08-07T12:31:09;19.51;56.00
66670;DHT22;53568;52.164;4.472;2023-08-07T12:33:35;19.58;56.25
66670;DHT22;53568;52.164;4.472;2023-08-07T12:36:01;19.61;57.20
66670;DHT22;53568;52.164;4.472;2023-08-07T12:38:27;19.71;56.44
66670;DHT22;53568;52.164;4.472;2023-08-07T12:40:53;19.73;54.91
66670;DHT22;53568;52.164;4.472;2023-08-07T12:43:19;19.61;54.99
66670;DHT22;53568;52.164;4.472;2023-08-07T12:45:44;19.65;52.95
66670;DHT22;53568;52.164;4.472;2023-08-07T12:48:10;19.37;54.79
66670;DHT22;53568;52.164;4.472;2023-08-07T12:50:36;19.19;56.37
66670;DHT22;53568;52.164;4.472;2023-08-07T12:53:02;19.21;57.36
66670;DHT22;53568;52.164;4.472;2023-08-07T12:55:28;19.17;57.26
66670;DHT22;53568;52.164;4.472;2023-08-07T12:57:54;19.17;57.64
66670;DHT22;53568;52.164;4.472;2023-08-07T13:00:21;19.20;57.01
66670;DHT22;53568;52.164;4.472;2023-08-07T13:02:49;19.17;57.48
66670;DHT22;53568;52.164;4.472;2023-08-07T13:05:16;18.95;57.02
66670;DHT22;53568;52.164;4.472;2023-08-07T13:07:45;18.85;57.65
66670;DHT22;53568;52.164;4.472;2023-08-07T13:10:13;18.66;61.08
66670;DHT22;53568;52.164;4.472;2023-08-07T13:12:42;18.73;62.90
66670;DHT22;53568;52.164;4.472;2023-08-07T13:15:10;18.76;63.19
66670;DHT22;53568;52.164;4.472;2023-08-07T13:17:39;18.89;64.54
66670;DHT22;53568;52.164;4.472;2023-08-07T13:20:07;18.86;65.01
66670;DHT22;53568;52.164;4.472;2023-08-07T13:22:40;19.00;61.33
66670;DHT22;53568;52.164;4.472;2023-08-07T13:25:07;19.14;61.03
66670;DHT22;53568;52.164;4.472;2023-08-07T13:27:34;19.14;61.54
66670;DHT22;53568;52.164;4.472;2023-08-07T13:30:00;19.38;58.74
66670;DHT22;53568;52.164;4.472;2023-08-07T13:32:26;19.33;57.22
66670;DHT22;53568;52.164;4.472;2023-08-07T13:34:52;19.38;59.56
66670;DHT22;53568;52.164;4.472;2023-08-07T13:37:17;19.35;59.03
66670;DHT22;53568;52.164;4.472;2023-08-07T13:39:43;19.09;58.31
66670;DHT22;53568;52.164;4.472;2023-08-07T13:42:09;19.03;59.07
66670;DHT22;53568;52.164;4.472;2023-08-07T13:44:36;19.14;59.61
66670;DHT22;53568;52.164;4.472;2023-08-07T13:47:02;19.27;59.25
66670;DHT22;53568;52.164;4.472;2023-08-07T13:49:27;19.26;56.96
66670;DHT22;53568;52.164;4.472;2023-08-07T13:51:53;19.16;57.71
66670;DHT22;53568;52.164;4.472;2023-08-07T13:54:19;18.77;59.95
66670;DHT22;53568;52.164;4.472;2023-08-07T13:56:45;18.67;60.94
66670;DHT22;53568;52.164;4.472;2023-08-07T13:59:10;18.76;61.20
66670;DHT22;53568;52.164;4.472;2023-08-07T14:01:36;18.76;61.90
66670;DHT22;53568;52.164;4.472;2023-08-07T14:04:03;18.79;61.88
66670;DHT22;53568;52.164;4.472;2023-08-07T14:06:28;18.65;62.08
66670;DHT22;53568;52.164;4.472;2023-08-07T14:08:54;18.69;63.61
66670;DHT22;53568;52.164;4.472;2023-08-07T14:11:20;18.73;64.22
66670;DHT22;53568;52.164;4.472;2023-08-07T14:13:46;18.72;64.50
66670;DHT22;53568;52.164;4.472;2023-08-07T14:16:12;18.79;64.74
66670;DHT22;53568;52.164;4.472;2023-08-07T14:18:38;18.92;64.74
66670;DHT22;53568;52.164;4.472;2023-08-07T14:21:06;18.70;65.16
66670;DHT22;53568;52.164;4.472;2023-08-07T14:23:32;18.63;65.33
66670;DHT22;53568;52.164;4.472;2023-08-07T14:25:57;18.59;65.64
66670;DHT22;53568;52.164;4.472;2023-08-07T14:28:23;18.66;65.64
66670;DHT22;53568;52.164;4.472;2023-08-07T14:30:49;18.67;65.52
66670;DHT22;53568;52.164;4.472;2023-08-07T14:33:14;18.63;65.43
66670;DHT22;53568;52.164;4.472;2023-08-07T14:35:40;18.52;65.73
66670;DHT22;53568;52.164;4.472;2023-08-07T14:38:06;18.49;65.50
66670;DHT22;53568;52.164;4.472;2023-08-07T14:40:31;18.79;65.06
66670;DHT22;53568;52.164;4.472;2023-08-07T14:42:57;18.92;64.34
66670;DHT22;53568;52.164;4.472;2023-08-07T14:45:22;19.04;63.06
66670;DHT22;53568;52.164;4.472;2023-08-07T14:47:49;19.26;61.86
66670;DHT22;53568;52.164;4.472;2023-08-07T14:50:15;19.47;62.17
66670;DHT22;53568;52.164;4.472;2023-08-07T14:52:44;19.67;61.79
66670;DHT22;53568;52.164;4.472;2023-08-07T14:55:10;19.50;61.68
66670;DHT22;53568;52.164;4.472;2023-08-07T14:57:35;19.54;61.10
66670;DHT22;53568;52.164;4.472;2023-08-07T15:00:01;19.57;60.95
66670;DHT22;53568;52.164;4.472;2023-08-07T15:02:26;19.60;60.84
66670;DHT22;53568;52.164;4.472;2023-08-07T15:04:52;19.60;61.00
66670;DHT22;53568;52.164;4.472;2023-08-07T15:07:18;19.75;61.43
66670;DHT22;53568;52.164;4.472;2023-08-07T15:09:43;19.81;59.63
66670;DHT22;53568;52.164;4.472;2023-08-07T15:12:09;19.91;59.84
66670;DHT22;53568;52.164;4.472;2023-08-07T15:14:35;19.70;59.10
66670;DHT22;53568;52.164;4.472;2023-08-07T15:17:00;19.65;59.69
66670;DHT22;53568;52.164;4.472;2023-08-07T15:19:26;19.64;60.15
66670;DHT22;53568;52.164;4.472;2023-08-07T15:21:52;19.70;59.27
66670;DHT22;53568;52.164;4.472;2023-08-07T15:24:17;19.75;59.28
66670;DHT22;53568;52.164;4.472;2023-08-07T15:26:43;19.75;60.02
66670;DHT22;53568;52.164;4.472;2023-08-07T15:29:08;19.61;59.77
66670;DHT22;53568;52.164;4.472;2023-08-07T15:31:34;19.65;60.18
66670;DHT22;53568;52.164;4.472;2023-08-07T15:33:59;19.61;60.31
66670;DHT22;53568;52.164;4.472;2023-08-07T15:36:25;19.51;61.51